TimeCST,TemperatureF,Dew PointF,Humidity,Sea Level PressureIn,VisibilityMPH,Wind Direction,Wind SpeedMPH,Gust SpeedMPH,PrecipitationIn,Events,Conditions,WindDirDegrees,DateUTC
12:35 AM,60.8,59.0,94,30.04,9.0,Calm,Calm,-,N/A,,Mostly Cloudy,0,2012-12-06 06:35:00
12:49 AM,60.8,59.0,94,30.04,8.0,Calm,Calm,-,N/A,,Mostly Cloudy,0,2012-12-06 06:49:00
12:53 AM,60.1,59.0,96,30.03,8.0,Calm,Calm,-,N/A,,Overcast,0,2012-12-06 06:53:00
1:42 AM,60.8,60.8,100,30.03,6.0,East,5.8,-,N/A,,Overcast,90,2012-12-06 07:42:00
1:53 AM,60.1,60.1,100,30.02,5.0,Variable,3.5,-,N/A,,Overcast,0,2012-12-06 07:53:00
2:53 AM,61.0,60.1,97,30.02,7.0,Calm,Calm,-,N/A,,Overcast,0,2012-12-06 08:53:00
3:53 AM,60.1,59.0,96,30.01,6.0,Calm,Calm,-,N/A,,Overcast,0,2012-12-06 09:53:00
4:24 AM,60.8,59.0,94,30.01,5.0,ENE,3.5,-,N/A,,Overcast,70,2012-12-06 10:24:00
4:53 AM,60.1,60.1,100,30.00,4.0,Calm,Calm,-,N/A,,Overcast,0,2012-12-06 10:53:00
5:53 AM,60.1,60.1,100,30.01,4.0,East,3.5,-,N/A,,Overcast,90,2012-12-06 11:53:00
6:53 AM,60.1,60.1,100,30.02,5.0,Calm,Calm,-,N/A,,Overcast,0,2012-12-06 12:53:00
7:06 AM,60.8,60.8,100,30.02,1.8,East,3.5,-,N/A,,Overcast,90,2012-12-06 13:06:00
7:53 AM,60.1,60.1,100,30.03,2.5,Variable,4.6,-,N/A,,Overcast,0,2012-12-06 13:53:00
8:18 AM,60.8,60.8,100,30.03,4.0,Calm,Calm,-,N/A,,Overcast,0,2012-12-06 14:18:00
8:53 AM,62.1,61.0,96,30.04,6.0,ESE,3.5,-,N/A,,Overcast,110,2012-12-06 14:53:00
9:15 AM,62.6,60.8,94,30.04,8.0,Calm,Calm,-,N/A,,Overcast,0,2012-12-06 15:15:00
9:53 AM,64.9,61.0,87,30.03,9.0,SE,5.8,-,N/A,,Overcast,140,2012-12-06 15:53:00
10:25 AM,64.4,60.8,88,30.03,7.0,ESE,5.8,-,N/A,,Overcast,120,2012-12-06 16:25:00
10:53 AM,64.9,62.1,90,30.02,9.0,SE,6.9,-,0.01,,Overcast,140,2012-12-06 16:53:00
11:03 AM,64.4,60.8,88,30.02,10.0,Calm,Calm,-,N/A,,Mostly Cloudy,0,2012-12-06 17:03:00
11:20 AM,66.2,60.8,83,30.02,10.0,Variable,4.6,-,N/A,,Scattered Clouds,0,2012-12-06 17:20:00
11:28 AM,66.2,60.8,83,30.01,10.0,Variable,5.8,-,N/A,,Mostly Cloudy,0,2012-12-06 17:28:00
11:53 AM,68.0,60.1,76,29.99,10.0,Variable,3.5,-,N/A,,Mostly Cloudy,0,2012-12-06 17:53:00
12:53 PM,69.1,60.1,73,29.96,10.0,SSE,6.9,-,N/A,,Mostly Cloudy,150,2012-12-06 18:53:00
1:04 PM,69.8,60.8,73,29.97,10.0,SE,6.9,-,N/A,,Overcast,140,2012-12-06 19:04:00
1:40 PM,69.8,60.8,73,29.96,10.0,SSE,5.8,-,N/A,,Overcast,150,2012-12-06 19:40:00
1:53 PM,69.1,60.1,73,29.96,10.0,SE,6.9,-,N/A,,Overcast,140,2012-12-06 19:53:00
2:53 PM,69.1,60.1,73,29.94,10.0,SE,4.6,-,N/A,,Overcast,130,2012-12-06 20:53:00
3:53 PM,70.0,60.1,71,29.94,10.0,South,5.8,-,N/A,,Overcast,170,2012-12-06 21:53:00
4:53 PM,68.0,61.0,78,29.94,10.0,Calm,Calm,-,N/A,,Overcast,0,2012-12-06 22:53:00
5:53 PM,64.0,61.0,90,29.94,10.0,Calm,Calm,-,N/A,,Mostly Cloudy,0,2012-12-06 23:53:00
6:53 PM,64.0,61.0,90,29.95,10.0,Calm,Calm,-,N/A,,Overcast,0,2012-12-07 00:53:00
7:53 PM,64.0,62.1,93,29.96,9.0,Calm,Calm,-,N/A,,Overcast,0,2012-12-07 01:53:00
8:53 PM,64.9,60.1,84,29.95,10.0,SE,5.8,-,N/A,,Overcast,140,2012-12-07 02:53:00
9:53 PM,62.1,57.9,86,29.96,10.0,SSE,3.5,-,N/A,,Clear,150,2012-12-07 03:53:00
10:53 PM,63.0,60.1,90,29.96,10.0,SSE,5.8,-,N/A,,Overcast,150,2012-12-07 04:53:00
11:53 PM,63.0,61.0,93,29.95,10.0,SSE,5.8,-,N/A,,Mostly Cloudy,150,2012-12-07 05:53:00